sensor_id;sensor_type;location;lat;lon;timestamp;pressure;altitude;pressure_sealevel;temperature;humidity
25650;BME280;13505;45.196;5.696;2022-12-18T05:04:39;100402.94;;;0.76;95.10
25650;BME280;13505;45.196;5.696;2022-12-18T05:09:30;100398.59;;;0.75;94.60
25650;BME280;13505;45.196;5.696;2022-12-18T05:14:20;100412.16;;;0.55;95.50
25650;BME280;13505;45.196;5.696;2022-12-18T05:19:11;100418.09;;;0.47;96.77
25650;BME280;13505;45.196;5.696;2022-12-18T05:24:01;100416.88;;;0.81;94.74
25650;BME280;13505;45.196;5.696;2022-12-18T05:28:52;100418.50;;;0.73;94.71
25650;BME280;13505;45.196;5.696;2022-12-18T05:33:42;100424.72;;;0.85;94.13
25650;BME280;13505;45.196;5.696;2022-12-18T05:38:35;100423.34;;;0.50;96.06
25650;BME280;13505;45.196;5.696;2022-12-18T05:43:26;100415.81;;;0.68;95.34
25650;BME280;13505;45.196;5.696;2022-12-18T05:48:17;100435.00;;;0.77;94.45
25650;BME280;13505;45.196;5.696;2022-12-18T05:53:08;100427.84;;;0.63;94.63
25650;BME280;13505;45.196;5.696;2022-12-18T05:57:58;100436.50;;;0.61;93.89
25650;BME280;13505;45.196;5.696;2022-12-18T06:02:49;100434.28;;;0.30;95.25
25650;BME280;13505;45.196;5.696;2022-12-18T06:07:39;100439.63;;;0.39;95.17
25650;BME280;13505;45.196;5.696;2022-12-18T06:12:30;100449.63;;;0.16;98.08
25650;BME280;13505;45.196;5.696;2022-12-18T06:17:20;100449.34;;;0.51;97.17
25650;BME280;13505;45.196;5.696;2022-12-18T06:22:11;100455.59;;;0.64;95.47
25650;BME280;13505;45.196;5.696;2022-12-18T06:27:01;100473.56;;;0.52;95.75
25650;BME280;13505;45.196;5.696;2022-12-18T06:31:52;100477.34;;;0.71;96.00
25650;BME280;13505;45.196;5.696;2022-12-18T06:36:42;100486.63;;;0.57;97.17
25650;BME280;13505;45.196;5.696;2022-12-18T06:41:33;100486.91;;;0.75;96.22
25650;BME280;13505;45.196;5.696;2022-12-18T06:46:23;100492.03;;;0.71;94.77
25650;BME280;13505;45.196;5.696;2022-12-18T06:51:19;100499.75;;;0.66;95.95
25650;BME280;13505;45.196;5.696;2022-12-18T06:56:09;100504.88;;;0.61;95.70
25650;BME280;13505;45.196;5.696;2022-12-18T07:01:05;100521.44;;;0.66;96.32
25650;BME280;13505;45.196;5.696;2022-12-18T07:05:56;100528.09;;;0.50;95.76
25650;BME280;13505;45.196;5.696;2022-12-18T07:10:46;100532.31;;;0.45;98.42
25650;BME280;13505;45.196;5.696;2022-12-18T07:15:39;100548.78;;;0.46;99.26
25650;BME280;13505;45.196;5.696;2022-12-18T07:20:29;100548.88;;;0.50;100.00
25650;BME280;13505;45.196;5.696;2022-12-18T07:25:19;100548.34;;;0.70;98.38
25650;BME280;13505;45.196;5.696;2022-12-18T07:30:10;100559.13;;;0.43;97.94
25650;BME280;13505;45.196;5.696;2022-12-18T07:35:00;100549.41;;;0.34;98.24
25650;BME280;13505;45.196;5.696;2022-12-18T07:39:51;100555.69;;;0.45;98.01
25650;BME280;13505;45.196;5.696;2022-12-18T07:44:42;100553.75;;;0.33;97.90
25650;BME280;13505;45.196;5.696;2022-12-18T07:49:32;100551.38;;;0.47;96.40
25650;BME280;13505;45.196;5.696;2022-12-18T07:54:23;100563.56;;;0.48;96.77
25650;BME280;13505;45.196;5.696;2022-12-18T07:59:14;100574.88;;;0.53;95.85
25650;BME280;13505;45.196;5.696;2022-12-18T08:04:04;100567.28;;;0.64;94.90
25650;BME280;13505;45.196;5.696;2022-12-18T08:08:55;100565.03;;;0.86;94.83
25650;BME280;13505;45.196;5.696;2022-12-18T08:13:46;100559.94;;;0.92;93.96
25650;BME280;13505;45.196;5.696;2022-12-18T08:18:37;100567.25;;;0.63;94.23
25650;BME280;13505;45.196;5.696;2022-12-18T08:23:27;100566.63;;;0.79;93.88
25650;BME280;13505;45.196;5.696;2022-12-18T08:28:17;100571.03;;;0.82;94.41
25650;BME280;13505;45.196;5.696;2022-12-18T08:33:08;100568.84;;;1.07;92.02
25650;BME280;13505;45.196;5.696;2022-12-18T08:37:58;100569.78;;;1.14;91.62
25650;BME280;13505;45.196;5.696;2022-12-18T08:42:48;100568.28;;;1.30;90.80
25650;BME280;13505;45.196;5.696;2022-12-18T08:47:57;100569.38;;;1.47;90.55
25650;BME280;13505;45.196;5.696;2022-12-18T08:52:47;100553.06;;;1.58;92.11
25650;BME280;13505;45.196;5.696;2022-12-18T08:57:38;100557.34;;;2.28;90.00
25650;BME280;13505;45.196;5.696;2022-12-18T09:02:28;100550.97;;;2.00;87.83
25650;BME280;13505;45.196;5.696;2022-12-18T09:07:18;100548.47;;;2.11;86.64
25650;BME280;13505;45.196;5.696;2022-12-18T09:12:09;100550.06;;;1.96;87.33
25650;BME280;13505;45.196;5.696;2022-12-18T09:16:59;100557.00;;;1.97;88.71
25650;BME280;13505;45.196;5.696;2022-12-18T09:21:49;100557.19;;;2.13;88.86
25650;BME280;13505;45.196;5.696;2022-12-18T09:26:40;100546.13;;;2.34;90.22
25650;BME280;13505;45.196;5.696;2022-12-18T09:31:30;100550.56;;;2.47;88.93
25650;BME280;13505;45.196;5.696;2022-12-18T09:36:20;100547.84;;;2.35;89.58
25650;BME280;13505;45.196;5.696;2022-12-18T09:41:46;100550.63;;;2.50;89.22
25650;BME280;13505;45.196;5.696;2022-12-18T09:46:42;100541.34;;;2.84;88.44
25650;BME280;13505;45.196;5.696;2022-12-18T09:51:39;100548.41;;;3.02;86.80
25650;BME280;13505;45.196;5.696;2022-12-18T09:56:35;100556.31;;;3.13;86.40
25650;BME280;13505;45.196;5.696;2022-12-18T10:01:28;100566.06;;;3.40;86.28
25650;BME280;13505;45.196;5.696;2022-12-18T10:11:40;100567.94;;;3.68;84.81
25650;BME280;13505;45.196;5.696;2022-12-18T10:16:47;100569.69;;;3.72;84.07
25650;BME280;13505;45.196;5.696;2022-12-18T10:22:10;100551.47;;;3.83;83.66
25650;BME280;13505;45.196;5.696;2022-12-18T10:27:12;100547.16;;;3.94;83.05
25650;BME280;13505;45.196;5.696;2022-12-18T10:32:04;100546.28;;;3.90;83.12
25650;BME280;13505;45.196;5.696;2022-12-18T10:36:54;100541.09;;;4.14;82.27
25650;BME280;13505;45.196;5.696;2022-12-18T10:41:44;100533.31;;;4.34;81.74
25650;BME280;13505;45.196;5.696;2022-12-18T10:46:35;100527.22;;;4.35;81.49
25650;BME280;13505;45.196;5.696;2022-12-18T10:51:36;100526.34;;;4.56;80.63
25650;BME280;13505;45.196;5.696;2022-12-18T10:56:29;100523.75;;;4.33;80.73
25650;BME280;13505;45.196;5.696;2022-12-18T11:01:20;100511.53;;;4.30;80.51
25650;BME280;13505;45.196;5.696;2022-12-18T11:06:19;100514.19;;;4.71;79.96
25650;BME280;13505;45.196;5.696;2022-12-18T11:11:24;100508.06;;;4.49;79.88
25650;BME280;13505;45.196;5.696;2022-12-18T11:16:19;100501.97;;;4.64;78.45
25650;BME280;13505;45.196;5.696;2022-12-18T11:21:11;100481.03;;;4.93;77.83
25650;BME280;13505;45.196;5.696;2022-12-18T11:26:04;100487.09;;;5.20;76.96
25650;BME280;13505;45.196;5.696;2022-12-18T11:31:28;100477.44;;;5.31;75.00
25650;BME280;13505;45.196;5.696;2022-12-18T11:36:21;100475.59;;;5.57;73.80
25650;BME280;13505;45.196;5.696;2022-12-18T11:46:24;100459.03;;;5.56;71.05
25650;BME280;13505;45.196;5.696;2022-12-18T11:51:25;100455.69;;;5.26;69.64
25650;BME280;13505;45.196;5.696;2022-12-18T11:56:41;100449.50;;;5.44;69.34
25650;BME280;13505;45.196;5.696;2022-12-18T12:28:13;100411.75;;;5.83;72.02
25650;BME280;13505;45.196;5.696;2022-12-18T12:33:11;100408.41;;;5.59;72.84
25650;BME280;13505;45.196;5.696;2022-12-18T12:38:28;100396.19;;;5.63;74.92
25650;BME280;13505;45.196;5.696;2022-12-18T12:48:46;100402.31;;;5.58;75.26
25650;BME280;13505;45.196;5.696;2022-12-18T12:53:39;100386.59;;;5.57;75.97
25650;BME280;13505;45.196;5.696;2022-12-18T12:58:43;100376.72;;;5.99;74.72
25650;BME280;13505;45.196;5.696;2022-12-18T13:08:58;100382.69;;;6.20;73.33
25650;BME280;13505;45.196;5.696;2022-12-18T13:13:55;100370.28;;;6.41;72.82
25650;BME280;13505;45.196;5.696;2022-12-18T13:18:50;100365.06;;;6.39;72.19
25650;BME280;13505;45.196;5.696;2022-12-18T13:23:41;100360.03;;;6.14;70.62
25650;BME280;13505;45.196;5.696;2022-12-18T13:33:45;100342.00;;;5.72;71.46
25650;BME280;13505;45.196;5.696;2022-12-18T13:38:37;100342.59;;;6.10;71.16
25650;BME280;13505;45.196;5.696;2022-12-18T13:48:33;100329.56;;;5.98;73.42
25650;BME280;13505;45.196;5.696;2022-12-18T13:53:30;100331.22;;;6.16;73.74
25650;BME280;13505;45.196;5.696;2022-12-18T13:58:22;100337.22;;;6.26;71.62
25650;BME280;13505;45.196;5.696;2022-12-18T14:03:24;100333.69;;;6.32;72.16
25650;BME280;13505;45.196;5.696;2022-12-18T14:08:16;100321.34;;;6.43;72.75
25650;BME280;13505;45.196;5.696;2022-12-18T14:13:08;100338.88;;;6.38;72.20
25650;BME280;13505;45.196;5.696;2022-12-18T14:18:25;100344.13;;;6.36;72.57
25650;BME280;13505;45.196;5.696;2022-12-18T14:23:36;100343.47;;;6.09;72.54
25650;BME280;13505;45.196;5.696;2022-12-18T14:28:28;100354.00;;;6.08;72.53
25650;BME280;13505;45.196;5.696;2022-12-18T14:33:26;100354.13;;;5.83;72.60
25650;BME280;13505;45.196;5.696;2022-12-18T14:38:33;100351.41;;;5.98;73.95
25650;BME280;13505;45.196;5.696;2022-12-18T14:43:24;100345.31;;;5.96;72.57
25650;BME280;13505;45.196;5.696;2022-12-18T14:53:35;100344.59;;;5.76;72.53
25650;BME280;13505;45.196;5.696;2022-12-18T14:58:27;100340.25;;;5.75;73.62
25650;BME280;13505;45.196;5.696;2022-12-18T15:03:20;100343.78;;;5.69;73.24
25650;BME280;13505;45.196;5.696;2022-12-18T15:08:28;100355.13;;;5.69;73.57
25650;BME280;13505;45.196;5.696;2022-12-18T15:13:23;100351.72;;;5.55;73.84
25650;BME280;13505;45.196;5.696;2022-12-18T15:18:17;100354.34;;;5.52;74.21
25650;BME280;13505;45.196;5.696;2022-12-18T15:23:34;100350.06;;;5.38;75.83
25650;BME280;13505;45.196;5.696;2022-12-18T15:33:30;100357.91;;;5.38;77.54
25650;BME280;13505;45.196;5.696;2022-12-18T15:38:21;100353.59;;;5.34;78.14
25650;BME280;13505;45.196;5.696;2022-12-18T15:43:11;100358.03;;;5.18;79.26
25650;BME280;13505;45.196;5.696;2022-12-18T15:48:21;100358.06;;;5.10;80.39
25650;BME280;13505;45.196;5.696;2022-12-18T15:53:12;100354.59;;;5.03;80.07
25650;BME280;13505;45.196;5.696;2022-12-18T15:58:04;100358.06;;;5.07;79.78
25650;BME280;13505;45.196;5.696;2022-12-18T16:02:55;100364.22;;;4.94;80.29
25650;BME280;13505;45.196;5.696;2022-12-18T16:07:45;100354.69;;;4.79;80.83
25650;BME280;13505;45.196;5.696;2022-12-18T16:12:36;100351.22;;;4.81;80.89
25650;BME280;13505;45.196;5.696;2022-12-18T16:17:27;100356.41;;;4.89;81.09
25650;BME280;13505;45.196;5.696;2022-12-18T16:22:20;100349.44;;;4.89;81.40
25650;BME280;13505;45.196;5.696;2022-12-18T16:27:11;100361.69;;;4.78;81.31
25650;BME280;13505;45.196;5.696;2022-12-18T16:32:01;100372.09;;;4.84;81.12
25650;BME280;13505;45.196;5.696;2022-12-18T16:36:52;100375.63;;;4.79;80.74
25650;BME280;13505;45.196;5.696;2022-12-18T16:41:46;100371.22;;;4.87;80.79
25650;BME280;13505;45.196;5.696;2022-12-18T16:46:37;100376.47;;;4.87;79.62
25650;BME280;13505;45.196;5.696;2022-12-18T16:51:28;100368.66;;;4.73;79.40
25650;BME280;13505;45.196;5.696;2022-12-18T16:56:18;100372.19;;;4.59;81.14
25650;BME280;13505;45.196;5.696;2022-12-18T17:01:10;100382.63;;;4.55;81.73
25650;BME280;13505;45.196;5.696;2022-12-18T17:06:04;100380.88;;;4.51;82.62
25650;BME280;13505;45.196;5.696;2022-12-18T17:10:55;100373.94;;;4.51;81.66
25650;BME280;13505;45.196;5.696;2022-12-18T17:15:45;100379.16;;;4.50;81.19
25650;BME280;13505;45.196;5.696;2022-12-18T17:20:35;100378.31;;;4.44;81.90
25650;BME280;13505;45.196;5.696;2022-12-18T17:25:26;100381.81;;;4.31;82.77
25650;BME280;13505;45.196;5.696;2022-12-18T17:30:16;100386.13;;;4.33;82.69
25650;BME280;13505;45.196;5.696;2022-12-18T17:35:07;100399.19;;;4.29;83.69
25650;BME280;13505;45.196;5.696;2022-12-18T17:39:57;100415.75;;;4.37;83.76
25650;BME280;13505;45.196;5.696;2022-12-18T17:44:48;100415.78;;;4.36;83.82
25650;BME280;13505;45.196;5.696;2022-12-18T17:49:38;100398.31;;;4.39;84.48
25650;BME280;13505;45.196;5.696;2022-12-18T17:54:28;100417.50;;;4.30;84.45
25650;BME280;13505;45.196;5.696;2022-12-18T17:59:19;100406.16;;;4.41;84.83
25650;BME280;13505;45.196;5.696;2022-12-18T18:04:09;100403.56;;;4.45;83.71
25650;BME280;13505;45.196;5.696;2022-12-18T18:09:00;100427.06;;;4.45;84.40
25650;BME280;13505;45.196;5.696;2022-12-18T18:13:50;100421.84;;;4.44;83.58
25650;BME280;13505;45.196;5.696;2022-12-18T18:18:49;100427.06;;;4.39;83.42
25650;BME280;13505;45.196;5.696;2022-12-18T18:23:40;100427.09;;;4.47;83.33
25650;BME280;13505;45.196;5.696;2022-12-18T18:28:30;100434.03;;;4.46;83.29
25650;BME280;13505;45.196;5.696;2022-12-18T18:33:21;100445.38;;;4.45;82.75
25650;BME280;13505;45.196;5.696;2022-12-18T18:38:11;100435.78;;;4.38;83.08
25650;BME280;13505;45.196;5.696;2022-12-18T18:43:02;100441.00;;;4.33;83.45
25650;BME280;13505;45.196;5.696;2022-12-18T18:47:52;100437.53;;;4.31;83.45
25650;BME280;13505;45.196;5.696;2022-12-18T18:52:43;100444.47;;;4.28;83.72
25650;BME280;13505;45.196;5.696;2022-12-18T18:57:33;100450.56;;;4.39;83.45
25650;BME280;13505;45.196;5.696;2022-12-18T19:02:23;100449.72;;;4.37;83.51
25650;BME280;13505;45.196;5.696;2022-12-18T19:07:15;100460.19;;;4.31;84.18
25650;BME280;13505;45.196;5.696;2022-12-18T19:12:06;100465.41;;;4.31;84.20
25650;BME280;13505;45.196;5.696;2022-12-18T19:17:14;100460.19;;;4.36;84.34
25650;BME280;13505;45.196;5.696;2022-12-18T19:22:05;100462.78;;;4.48;83.81
25650;BME280;13505;45.196;5.696;2022-12-18T19:26:55;100460.16;;;4.37;84.75
25650;BME280;13505;45.196;5.696;2022-12-18T19:31:45;100451.47;;;4.41;84.48
25650;BME280;13505;45.196;5.696;2022-12-18T19:36:38;100447.97;;;4.55;83.72
25650;BME280;13505;45.196;5.696;2022-12-18T19:41:28;100443.63;;;4.63;82.95
25650;BME280;13505;45.196;5.696;2022-12-18T19:46:20;100447.97;;;4.69;82.98
25650;BME280;13505;45.196;5.696;2022-12-18T19:51:23;100429.66;;;4.69;81.93
25650;BME280;13505;45.196;5.696;2022-12-18T19:56:16;100434.91;;;4.50;82.71
25650;BME280;13505;45.196;5.696;2022-12-18T20:01:09;100436.63;;;4.45;84.08
25650;BME280;13505;45.196;5.696;2022-12-18T20:06:12;100434.91;;;4.39;84.73
25650;BME280;13505;45.196;5.696;2022-12-18T20:11:03;100442.75;;;4.44;84.51
25650;BME280;13505;45.196;5.696;2022-12-18T20:15:54;100433.19;;;4.41;84.72
25650;BME280;13505;45.196;5.696;2022-12-18T20:20:44;100438.41;;;4.35;84.71
25650;BME280;13505;45.196;5.696;2022-12-18T20:25:34;100429.66;;;4.13;87.26
25650;BME280;13505;45.196;5.696;2022-12-18T20:30:25;100435.75;;;3.87;88.42
25650;BME280;13505;45.196;5.696;2022-12-18T20:35:15;100426.19;;;4.03;87.54
25650;BME280;13505;45.196;5.696;2022-12-18T20:40:07;100434.91;;;4.02;87.46
25650;BME280;13505;45.196;5.696;2022-12-18T20:44:57;100411.41;;;4.10;86.61
25650;BME280;13505;45.196;5.696;2022-12-18T20:49:47;100418.34;;;4.01;87.85
25650;BME280;13505;45.196;5.696;2022-12-18T20:54:38;100419.22;;;4.08;87.20
25650;BME280;13505;45.196;5.696;2022-12-18T20:59:28;100417.50;;;4.18;86.91
25650;BME280;13505;45.196;5.696;2022-12-18T21:04:19;100412.28;;;4.23;86.16
25650;BME280;13505;45.196;5.696;2022-12-18T21:09:10;100401.84;;;4.27;86.03
25650;BME280;13505;45.196;5.696;2022-12-18T21:14:02;100387.03;;;4.36;84.91
25650;BME280;13505;45.196;5.696;2022-12-18T21:18:53;100385.28;;;4.33;84.98
25650;BME280;13505;45.196;5.696;2022-12-18T21:23:43;100390.50;;;4.36;84.55
25650;BME280;13505;45.196;5.696;2022-12-18T21:28:33;100370.50;;;4.32;84.46
25650;BME280;13505;45.196;5.696;2022-12-18T21:33:23;100373.97;;;4.29;84.91
25650;BME280;13505;45.196;5.696;2022-12-18T21:38:14;100370.47;;;4.29;84.52
25650;BME280;13505;45.196;5.696;2022-12-18T21:43:04;100363.53;;;4.17;85.33
25650;BME280;13505;45.196;5.696;2022-12-18T21:48:33;100382.69;;;4.25;85.68
25650;BME280;13505;45.196;5.696;2022-12-18T21:53:23;100400.97;;;4.25;85.40
25650;BME280;13505;45.196;5.696;2022-12-18T21:58:13;100387.88;;;4.13;85.42
25650;BME280;13505;45.196;5.696;2022-12-18T22:03:03;100400.97;;;4.16;86.30
25650;BME280;13505;45.196;5.696;2022-12-18T22:07:54;100388.78;;;4.09;85.83
25650;BME280;13505;45.196;5.696;2022-12-18T22:12:45;100387.91;;;4.10;86.23
25650;BME280;13505;45.196;5.696;2022-12-18T22:17:35;100381.81;;;3.95;86.07
25650;BME280;13505;45.196;5.696;2022-12-18T22:22:25;100386.13;;;3.98;86.77
25650;BME280;13505;45.196;5.696;2022-12-18T22:27:16;100394.84;;;4.01;87.29
25650;BME280;13505;45.196;5.696;2022-12-18T22:32:08;100407.91;;;4.14;86.02
25650;BME280;13505;45.196;5.696;2022-12-18T22:36:59;100388.78;;;4.15;85.70
25650;BME280;13505;45.196;5.696;2022-12-18T22:41:50;100383.56;;;4.15;85.11
25650;BME280;13505;45.196;5.696;2022-12-18T22:46:43;100402.69;;;4.23;84.04
25650;BME280;13505;45.196;5.696;2022-12-18T22:51:35;100397.47;;;4.18;83.45
25650;BME280;13505;45.196;5.696;2022-12-18T22:56:25;100395.72;;;4.27;82.78
